sensor_id;sensor_type;location;lat;lon;timestamp;pressure;altitude;pressure_sealevel;temperature;humidity
41686;BME280;27370;42.764;23.432;2023-09-08T00:00:41;96081.56;;;19.18;100.00
41686;BME280;27370;42.764;23.432;2023-09-08T00:03:07;96090.09;;;19.20;100.00
41686;BME280;27370;42.764;23.432;2023-09-08T00:05:32;96087.94;;;19.15;100.00
41686;BME280;27370;42.764;23.432;2023-09-08T00:07:58;96080.44;;;19.06;100.00
41686;BME280;27370;42.764;23.432;2023-09-08T00:10:23;96097.75;;;18.94;100.00
41686;BME280;27370;42.764;23.432;2023-09-08T00:12:49;96090.91;;;18.98;100.00
41686;BME280;27370;42.764;23.432;2023-09-08T00:15:14;96088.47;;;19.01;100.00
41686;BME280;27370;42.764;23.432;2023-09-08T00:17:40;96091.59;;;18.81;100.00
41686;BME280;27370;42.764;23.432;2023-09-08T00:20:06;96089.16;;;18.83;100.00
41686;BME280;27370;42.764;23.432;2023-09-08T00:22:37;96084.81;;;18.51;100.00
41686;BME280;27370;42.764;23.432;2023-09-08T00:25:02;96086.31;;;18.52;100.00
41686;BME280;27370;42.764;23.432;2023-09-08T00:27:30;96086.66;;;18.54;100.00
41686;BME280;27370;42.764;23.432;2023-09-08T00:29:56;96088.13;;;18.46;100.00
41686;BME280;27370;42.764;23.432;2023-09-08T00:32:21;96088.00;;;18.49;100.00
41686;BME280;27370;42.764;23.432;2023-09-08T00:34:47;96095.41;;;18.40;100.00
41686;BME280;27370;42.764;23.432;2023-09-08T00:37:12;96084.91;;;18.25;100.00
41686;BME280;27370;42.764;23.432;2023-09-08T00:39:38;96087.22;;;18.27;100.00
41686;BME280;27370;42.764;23.432;2023-09-08T00:42:05;96088.69;;;18.19;100.00
41686;BME280;27370;42.764;23.432;2023-09-08T00:44:31;96085.41;;;18.11;100.00
41686;BME280;27370;42.764;23.432;2023-09-08T00:46:56;96092.09;;;18.10;100.00
41686;BME280;27370;42.764;23.432;2023-09-08T00:49:22;96089.56;;;18.16;100.00
41686;BME280;27370;42.764;23.432;2023-09-08T00:52:18;96087.44;;;17.98;100.00
41686;BME280;27370;42.764;23.432;2023-09-08T00:55:02;96081.50;;;17.99;100.00
41686;BME280;27370;42.764;23.432;2023-09-08T00:57:28;96087.75;;;17.87;100.00
41686;BME280;27370;42.764;23.432;2023-09-08T00:59:54;96075.84;;;17.81;100.00
41686;BME280;27370;42.764;23.432;2023-09-08T01:02:21;96077.50;;;17.79;100.00
41686;BME280;27370;42.764;23.432;2023-09-08T01:04:47;96079.03;;;17.80;100.00
41686;BME280;27370;42.764;23.432;2023-09-08T01:07:13;96080.47;;;17.71;100.00
41686;BME280;27370;42.764;23.432;2023-09-08T01:09:40;96080.16;;;17.69;100.00
41686;BME280;27370;42.764;23.432;2023-09-08T01:12:06;96079.91;;;17.64;100.00
41686;BME280;27370;42.764;23.432;2023-09-08T01:14:32;96081.00;;;17.66;100.00
41686;BME280;27370;42.764;23.432;2023-09-08T01:16:58;96078.81;;;17.61;100.00
41686;BME280;27370;42.764;23.432;2023-09-08T01:19:23;96079.56;;;17.62;100.00
41686;BME280;27370;42.764;23.432;2023-09-08T01:21:56;96076.50;;;17.60;100.00
41686;BME280;27370;42.764;23.432;2023-09-08T01:24:57;96079.03;;;17.54;100.00
41686;BME280;27370;42.764;23.432;2023-09-08T01:27:25;96075.88;;;17.43;100.00
41686;BME280;27370;42.764;23.432;2023-09-08T01:29:53;96072.03;;;17.53;100.00
41686;BME280;27370;42.764;23.432;2023-09-08T01:32:22;96078.28;;;17.41;100.00
41686;BME280;27370;42.764;23.432;2023-09-08T01:34:48;96074.91;;;17.11;100.00
41686;BME280;27370;42.764;23.432;2023-09-08T01:37:14;96078.09;;;17.23;100.00
41686;BME280;27370;42.764;23.432;2023-09-08T01:39:39;96065.81;;;17.27;100.00
41686;BME280;27370;42.764;23.432;2023-09-08T01:42:05;96070.28;;;17.34;100.00
41686;BME280;27370;42.764;23.432;2023-09-08T01:44:31;96066.47;;;17.31;100.00
41686;BME280;27370;42.764;23.432;2023-09-08T01:46:56;96065.69;;;17.18;100.00
41686;BME280;27370;42.764;23.432;2023-09-08T01:49:23;96066.03;;;17.20;100.00
41686;BME280;27370;42.764;23.432;2023-09-08T01:51:49;96067.47;;;17.25;100.00
41686;BME280;27370;42.764;23.432;2023-09-08T01:54:16;96064.81;;;17.34;100.00
41686;BME280;27370;42.764;23.432;2023-09-08T01:56:41;96064.81;;;17.34;100.00
41686;BME280;27370;42.764;23.432;2023-09-08T01:59:15;96061.22;;;17.24;100.00
41686;BME280;27370;42.764;23.432;2023-09-08T02:01:41;96056.28;;;17.32;100.00
41686;BME280;27370;42.764;23.432;2023-09-08T02:04:07;96055.00;;;17.24;100.00
41686;BME280;27370;42.764;23.432;2023-09-08T02:06:32;96051.34;;;17.14;100.00
41686;BME280;27370;42.764;23.432;2023-09-08T02:08:58;96044.91;;;17.21;100.00
41686;BME280;27370;42.764;23.432;2023-09-08T02:11:24;96047.88;;;17.26;100.00
41686;BME280;27370;42.764;23.432;2023-09-08T02:13:50;96049.63;;;17.20;100.00
41686;BME280;27370;42.764;23.432;2023-09-08T02:16:16;96041.81;;;17.19;100.00
41686;BME280;27370;42.764;23.432;2023-09-08T02:18:42;96051.91;;;17.22;100.00
41686;BME280;27370;42.764;23.432;2023-09-08T02:21:08;96050.25;;;17.11;100.00
41686;BME280;27370;42.764;23.432;2023-09-08T02:23:34;96051.34;;;16.89;100.00
41686;BME280;27370;42.764;23.432;2023-09-08T02:25:59;96049.59;;;16.82;100.00
41686;BME280;27370;42.764;23.432;2023-09-08T02:28:25;96053.97;;;16.79;100.00
41686;BME280;27370;42.764;23.432;2023-09-08T02:30:52;96046.53;;;16.80;100.00
41686;BME280;27370;42.764;23.432;2023-09-08T02:33:17;96054.84;;;16.76;100.00
41686;BME280;27370;42.764;23.432;2023-09-08T02:35:46;96030.28;;;16.60;100.00
41686;BME280;27370;42.764;23.432;2023-09-08T02:38:12;96054.41;;;16.78;100.00
41686;BME280;27370;42.764;23.432;2023-09-08T02:40:37;96046.97;;;16.78;100.00
41686;BME280;27370;42.764;23.432;2023-09-08T02:43:04;96045.13;;;16.88;100.00
41686;BME280;27370;42.764;23.432;2023-09-08T02:45:30;96039.88;;;16.81;100.00
41686;BME280;27370;42.764;23.432;2023-09-08T02:47:55;96036.59;;;16.86;100.00
41686;BME280;27370;42.764;23.432;2023-09-08T02:50:21;96032.75;;;16.83;100.00
41686;BME280;27370;42.764;23.432;2023-09-08T02:52:47;96038.44;;;16.76;100.00
41686;BME280;27370;42.764;23.432;2023-09-08T02:55:13;96034.38;;;16.94;100.00
41686;BME280;27370;42.764;23.432;2023-09-08T02:57:39;96033.53;;;16.84;100.00
41686;BME280;27370;42.764;23.432;2023-09-08T03:00:06;96033.41;;;16.75;100.00
41686;BME280;27370;42.764;23.432;2023-09-08T03:02:34;96032.00;;;16.83;100.00
41686;BME280;27370;42.764;23.432;2023-09-08T03:05:01;96026.78;;;16.60;100.00
41686;BME280;27370;42.764;23.432;2023-09-08T03:07:27;96027.41;;;16.51;100.00
41686;BME280;27370;42.764;23.432;2023-09-08T03:09:53;96033.31;;;16.49;100.00
41686;BME280;27370;42.764;23.432;2023-09-08T03:12:20;96039.97;;;16.48;100.00
41686;BME280;27370;42.764;23.432;2023-09-08T03:14:46;96035.22;;;16.23;100.00
41686;BME280;27370;42.764;23.432;2023-09-08T03:17:12;96035.88;;;15.99;100.00
41686;BME280;27370;42.764;23.432;2023-09-08T03:19:38;96032.56;;;16.07;100.00
41686;BME280;27370;42.764;23.432;2023-09-08T03:22:06;96032.84;;;15.80;100.00
41686;BME280;27370;42.764;23.432;2023-09-08T03:24:31;96024.41;;;15.75;100.00
41686;BME280;27370;42.764;23.432;2023-09-08T03:26:57;96029.44;;;15.76;100.00
41686;BME280;27370;42.764;23.432;2023-09-08T03:29:23;96028.50;;;15.83;100.00
41686;BME280;27370;42.764;23.432;2023-09-08T03:31:48;96015.00;;;15.63;100.00
41686;BME280;27370;42.764;23.432;2023-09-08T03:34:14;96025.13;;;15.46;100.00
41686;BME280;27370;42.764;23.432;2023-09-08T03:36:40;96016.66;;;15.57;100.00
41686;BME280;27370;42.764;23.432;2023-09-08T03:39:06;96018.19;;;15.58;100.00
41686;BME280;27370;42.764;23.432;2023-09-08T03:41:31;96018.63;;;15.56;100.00
41686;BME280;27370;42.764;23.432;2023-09-08T03:43:57;96029.06;;;15.61;100.00
41686;BME280;27370;42.764;23.432;2023-09-08T03:46:22;96012.72;;;15.90;100.00
41686;BME280;27370;42.764;23.432;2023-09-08T03:48:50;96012.06;;;16.28;100.00
41686;BME280;27370;42.764;23.432;2023-09-08T03:51:15;96017.78;;;16.46;100.00
41686;BME280;27370;42.764;23.432;2023-09-08T03:53:41;96010.53;;;16.69;100.00
41686;BME280;27370;42.764;23.432;2023-09-08T03:56:06;96006.91;;;16.97;100.00
41686;BME280;27370;42.764;23.432;2023-09-08T03:58:32;96013.50;;;17.12;100.00
41686;BME280;27370;42.764;23.432;2023-09-08T04:00:57;96015.34;;;17.15;100.00
41686;BME280;27370;42.764;23.432;2023-09-08T04:03:23;96011.88;;;17.02;100.00
41686;BME280;27370;42.764;23.432;2023-09-08T04:05:48;96018.41;;;16.92;100.00
41686;BME280;27370;42.764;23.432;2023-09-08T04:08:14;96014.78;;;16.70;100.00
41686;BME280;27370;42.764;23.432;2023-09-08T04:10:39;96015.72;;;16.50;100.00
41686;BME280;27370;42.764;23.432;2023-09-08T04:13:05;96008.94;;;16.42;100.00
41686;BME280;27370;42.764;23.432;2023-09-08T04:15:31;96014.38;;;16.42;100.00
41686;BME280;27370;42.764;23.432;2023-09-08T04:17:57;96017.88;;;16.30;100.00
41686;BME280;27370;42.764;23.432;2023-09-08T04:20:23;96025.38;;;16.26;100.00
41686;BME280;27370;42.764;23.432;2023-09-08T04:22:48;96021.13;;;16.25;100.00
41686;BME280;27370;42.764;23.432;2023-09-08T04:25:14;96031.28;;;16.24;100.00
41686;BME280;27370;42.764;23.432;2023-09-08T04:27:40;96035.31;;;16.20;100.00
41686;BME280;27370;42.764;23.432;2023-09-08T04:30:06;96033.34;;;16.20;100.00
41686;BME280;27370;42.764;23.432;2023-09-08T04:32:32;96053.47;;;16.27;100.00
41686;BME280;27370;42.764;23.432;2023-09-08T04:34:58;96049.13;;;16.00;100.00
41686;BME280;27370;42.764;23.432;2023-09-08T04:37:24;96051.69;;;16.07;100.00
41686;BME280;27370;42.764;23.432;2023-09-08T04:39:49;96053.13;;;16.12;100.00
41686;BME280;27370;42.764;23.432;2023-09-08T04:42:15;96056.63;;;16.12;100.00
41686;BME280;27370;42.764;23.432;2023-09-08T04:44:41;96046.53;;;16.09;100.00
41686;BME280;27370;42.764;23.432;2023-09-08T04:47:07;96052.47;;;16.20;100.00
41686;BME280;27370;42.764;23.432;2023-09-08T04:49:33;96053.44;;;16.14;100.00
41686;BME280;27370;42.764;23.432;2023-09-08T04:51:58;96054.00;;;16.21;100.00
41686;BME280;27370;42.764;23.432;2023-09-08T04:54:25;96053.53;;;16.39;100.00
41686;BME280;27370;42.764;23.432;2023-09-08T04:56:54;96048.34;;;16.58;100.00
41686;BME280;27370;42.764;23.432;2023-09-08T04:59:20;96051.91;;;16.42;100.00
41686;BME280;27370;42.764;23.432;2023-09-08T05:01:46;96049.59;;;16.82;100.00
41686;BME280;27370;42.764;23.432;2023-09-08T05:04:11;96041.50;;;16.91;100.00
41686;BME280;27370;42.764;23.432;2023-09-08T05:06:37;96051.34;;;17.14;100.00
41686;BME280;27370;42.764;23.432;2023-09-08T05:09:03;96052.78;;;17.31;100.00
41686;BME280;27370;42.764;23.432;2023-09-08T05:11:30;96054.31;;;17.45;100.00
41686;BME280;27370;42.764;23.432;2023-09-08T05:13:56;96054.28;;;17.70;100.00
41686;BME280;27370;42.764;23.432;2023-09-08T05:16:23;96057.28;;;17.98;100.00
41686;BME280;27370;42.764;23.432;2023-09-08T05:19:06;96065.38;;;18.36;100.00
41686;BME280;27370;42.764;23.432;2023-09-08T05:21:33;96051.06;;;19.16;100.00
41686;BME280;27370;42.764;23.432;2023-09-08T05:23:59;96045.31;;;19.81;100.00
41686;BME280;27370;42.764;23.432;2023-09-08T05:26:25;96044.56;;;20.63;100.00
41686;BME280;27370;42.764;23.432;2023-09-08T05:28:51;96039.78;;;21.33;100.00
41686;BME280;27370;42.764;23.432;2023-09-08T05:31:17;96042.16;;;21.74;100.00
41686;BME280;27370;42.764;23.432;2023-09-08T05:33:42;96040.88;;;21.84;100.00
41686;BME280;27370;42.764;23.432;2023-09-08T05:36:08;96036.28;;;22.43;100.00
41686;BME280;27370;42.764;23.432;2023-09-08T05:38:33;96045.91;;;22.62;100.00
41686;BME280;27370;42.764;23.432;2023-09-08T05:40:59;96043.41;;;22.35;100.00
41686;BME280;27370;42.764;23.432;2023-09-08T05:43:25;96052.28;;;22.15;100.00
41686;BME280;27370;42.764;23.432;2023-09-08T05:45:51;96046.97;;;22.12;100.00
41686;BME280;27370;42.764;23.432;2023-09-08T05:48:18;96049.13;;;21.84;100.00
41686;BME280;27370;42.764;23.432;2023-09-08T05:50:44;96048.94;;;21.87;100.00
41686;BME280;27370;42.764;23.432;2023-09-08T05:53:10;96046.97;;;21.88;100.00
41686;BME280;27370;42.764;23.432;2023-09-08T05:55:35;96051.06;;;21.68;100.00
41686;BME280;27370;42.764;23.432;2023-09-08T05:58:01;96051.34;;;20.95;100.00
41686;BME280;27370;42.764;23.432;2023-09-08T06:00:28;96045.44;;;20.88;100.00
41686;BME280;27370;42.764;23.432;2023-09-08T06:02:53;96050.66;;;21.19;100.00
41686;BME280;27370;42.764;23.432;2023-09-08T06:05:19;96053.78;;;21.02;100.00
41686;BME280;27370;42.764;23.432;2023-09-08T06:07:45;96057.53;;;21.23;100.00
41686;BME280;27370;42.764;23.432;2023-09-08T06:10:11;96048.81;;;21.25;100.00
41686;BME280;27370;42.764;23.432;2023-09-08T06:12:37;96053.38;;;21.37;100.00
41686;BME280;27370;42.764;23.432;2023-09-08T06:15:02;96056.75;;;21.23;100.00
41686;BME280;27370;42.764;23.432;2023-09-08T06:17:29;96044.06;;;21.34;100.00
41686;BME280;27370;42.764;23.432;2023-09-08T06:19:55;96051.88;;;21.84;100.00
41686;BME280;27370;42.764;23.432;2023-09-08T06:22:21;96050.25;;;22.01;100.00
41686;BME280;27370;42.764;23.432;2023-09-08T06:24:47;96049.47;;;22.00;100.00
41686;BME280;27370;42.764;23.432;2023-09-08T06:27:14;96042.09;;;21.83;100.00
41686;BME280;27370;42.764;23.432;2023-09-08T06:29:40;96051.06;;;21.92;100.00
41686;BME280;27370;42.764;23.432;2023-09-08T06:32:10;96053.44;;;22.09;100.00
41686;BME280;27370;42.764;23.432;2023-09-08T06:34:37;96052.91;;;21.95;100.00
41686;BME280;27370;42.764;23.432;2023-09-08T06:37:03;96048.09;;;21.81;100.00
41686;BME280;27370;42.764;23.432;2023-09-08T06:39:29;96049.53;;;21.91;100.00
41686;BME280;27370;42.764;23.432;2023-09-08T06:41:55;96055.47;;;21.99;100.00
41686;BME280;27370;42.764;23.432;2023-09-08T06:44:21;96058.56;;;22.16;100.00
41686;BME280;27370;42.764;23.432;2023-09-08T06:46:46;96059.00;;;22.23;100.00
41686;BME280;27370;42.764;23.432;2023-09-08T06:49:13;96055.69;;;22.34;100.00
41686;BME280;27370;42.764;23.432;2023-09-08T06:51:39;96055.97;;;22.36;100.00
41686;BME280;27370;42.764;23.432;2023-09-08T06:54:05;96063.94;;;22.34;100.00
41686;BME280;27370;42.764;23.432;2023-09-08T06:56:37;96064.03;;;22.25;100.00
41686;BME280;27370;42.764;23.432;2023-09-08T06:59:03;96062.50;;;22.24;100.00
41686;BME280;27370;42.764;23.432;2023-09-08T07:01:29;96054.84;;;22.43;100.00
41686;BME280;27370;42.764;23.432;2023-09-08T07:03:55;96055.00;;;22.39;100.00
41686;BME280;27370;42.764;23.432;2023-09-08T07:06:20;96064.28;;;22.51;100.00
41686;BME280;27370;42.764;23.432;2023-09-08T07:08:49;96061.03;;;22.52;100.00
41686;BME280;27370;42.764;23.432;2023-09-08T07:11:18;96057.91;;;22.59;100.00
41686;BME280;27370;42.764;23.432;2023-09-08T07:13:45;96060.88;;;22.71;100.00
41686;BME280;27370;42.764;23.432;2023-09-08T07:16:11;96052.50;;;22.65;100.00
41686;BME280;27370;42.764;23.432;2023-09-08T07:18:36;96051.13;;;22.60;100.00
41686;BME280;27370;42.764;23.432;2023-09-08T07:21:05;96050.72;;;22.38;100.00
41686;BME280;27370;42.764;23.432;2023-09-08T07:23:32;96050.09;;;22.43;100.00
41686;BME280;27370;42.764;23.432;2023-09-08T07:25:57;96038.84;;;22.61;100.00
41686;BME280;27370;42.764;23.432;2023-09-08T07:28:27;96045.06;;;22.71;100.00
41686;BME280;27370;42.764;23.432;2023-09-08T07:31:01;96058.41;;;23.02;100.00
41686;BME280;27370;42.764;23.432;2023-09-08T07:33:27;96048.25;;;22.94;100.00
41686;BME280;27370;42.764;23.432;2023-09-08T07:35:53;96044.28;;;23.30;100.00
41686;BME280;27370;42.764;23.432;2023-09-08T07:38:18;96049.50;;;23.42;100.00
41686;BME280;27370;42.764;23.432;2023-09-08T07:40:44;96042.44;;;23.56;100.00
41686;BME280;27370;42.764;23.432;2023-09-08T07:43:10;96045.34;;;23.67;100.00
41686;BME280;27370;42.764;23.432;2023-09-08T07:45:36;96043.91;;;23.72;100.00
41686;BME280;27370;42.764;23.432;2023-09-08T07:48:01;96038.59;;;23.68;100.00
41686;BME280;27370;42.764;23.432;2023-09-08T07:50:28;96038.16;;;23.75;100.00
41686;BME280;27370;42.764;23.432;2023-09-08T07:52:55;96035.97;;;23.79;100.00
41686;BME280;27370;42.764;23.432;2023-09-08T07:55:22;96029.06;;;23.90;100.00
41686;BME280;27370;42.764;23.432;2023-09-08T07:57:54;96031.53;;;24.08;100.00
41686;BME280;27370;42.764;23.432;2023-09-08T08:00:20;96033.19;;;24.20;100.00
41686;BME280;27370;42.764;23.432;2023-09-08T08:02:49;96031.19;;;24.21;100.00
41686;BME280;27370;42.764;23.432;2023-09-08T08:05:15;96030.22;;;24.24;100.00
41686;BME280;27370;42.764;23.432;2023-09-08T08:07:56;96027.66;;;24.20;100.00
41686;BME280;27370;42.764;23.432;2023-09-08T08:10:22;96030.38;;;24.35;100.00
41686;BME280;27370;42.764;23.432;2023-09-08T08:12:47;96031.75;;;24.04;100.00
41686;BME280;27370;42.764;23.432;2023-09-08T08:15:13;96031.50;;;24.02;100.00
41686;BME280;27370;42.764;23.432;2023-09-08T08:17:39;96035.22;;;23.99;100.00
41686;BME280;27370;42.764;23.432;2023-09-08T08:20:06;96023.38;;;24.19;100.00
41686;BME280;27370;42.764;23.432;2023-09-08T08:22:34;96024.03;;;24.29;100.00
41686;BME280;27370;42.764;23.432;2023-09-08T08:25:00;96023.38;;;24.39;100.00
41686;BME280;27370;42.764;23.432;2023-09-08T08:27:26;96021.78;;;24.33;100.00
41686;BME280;27370;42.764;23.432;2023-09-08T08:29:51;96031.19;;;24.21;100.00
41686;BME280;27370;42.764;23.432;2023-09-08T08:32:17;96020.81;;;24.16;100.00
41686;BME280;27370;42.764;23.432;2023-09-08T08:34:43;96024.34;;;23.96;100.00
41686;BME280;27370;42.764;23.432;2023-09-08T08:37:10;96026.13;;;23.99;100.00
41686;BME280;27370;42.764;23.432;2023-09-08T08:39:36;96025.88;;;23.97;100.00
41686;BME280;27370;42.764;23.432;2023-09-08T08:42:11;96018.69;;;23.85;100.00
41686;BME280;27370;42.764;23.432;2023-09-08T08:44:40;96013.22;;;23.90;100.00
41686;BME280;27370;42.764;23.432;2023-09-08T08:47:07;96015.97;;;24.31;100.00
41686;BME280;27370;42.764;23.432;2023-09-08T08:49:33;96009.38;;;24.49;100.00
41686;BME280;27370;42.764;23.432;2023-09-08T08:52:00;96015.94;;;24.51;100.00
41686;BME280;27370;42.764;23.432;2023-09-08T08:54:29;96014.38;;;24.24;100.00
41686;BME280;27370;42.764;23.432;2023-09-08T08:56:55;96013.91;;;24.26;100.00
41686;BME280;27370;42.764;23.432;2023-09-08T08:59:21;96008.44;;;24.11;100.00
41686;BME280;27370;42.764;23.432;2023-09-08T09:01:48;96006.78;;;23.99;100.00
41686;BME280;27370;42.764;23.432;2023-09-08T09:04:15;96017.22;;;24.09;100.00
41686;BME280;27370;42.764;23.432;2023-09-08T09:06:41;96012.19;;;24.28;100.00
41686;BME280;27370;42.764;23.432;2023-09-08T09:09:07;96013.91;;;24.78;100.00
41686;BME280;27370;42.764;23.432;2023-09-08T09:11:33;96014.44;;;25.08;100.00
41686;BME280;27370;42.764;23.432;2023-09-08T09:13:59;96009.22;;;25.15;100.00
41686;BME280;27370;42.764;23.432;2023-09-08T09:16:25;96010.78;;;24.90;100.00
41686;BME280;27370;42.764;23.432;2023-09-08T09:18:58;96014.41;;;24.76;100.00
41686;BME280;27370;42.764;23.432;2023-09-08T09:21:44;96021.03;;;24.84;100.00
41686;BME280;27370;42.764;23.432;2023-09-08T09:24:15;96017.19;;;24.76;100.00
41686;BME280;27370;42.764;23.432;2023-09-08T09:26:41;96022.16;;;24.98;100.00
41686;BME280;27370;42.764;23.432;2023-09-08T09:29:13;96019.97;;;24.76;100.00
41686;BME280;27370;42.764;23.432;2023-09-08T09:31:51;96003.97;;;24.65;100.00
41686;BME280;27370;42.764;23.432;2023-09-08T09:34:18;96008.47;;;24.89;100.00
41686;BME280;27370;42.764;23.432;2023-09-08T09:36:43;96010.47;;;25.14;100.00
41686;BME280;27370;42.764;23.432;2023-09-08T09:39:12;96012.03;;;25.21;100.00
41686;BME280;27370;42.764;23.432;2023-09-08T09:41:37;96012.09;;;25.32;100.00
41686;BME280;27370;42.764;23.432;2023-09-08T09:44:03;96011.94;;;25.47;100.00
41686;BME280;27370;42.764;23.432;2023-09-08T09:46:29;96000.63;;;25.56;100.00
41686;BME280;27370;42.764;23.432;2023-09-08T09:48:55;96008.75;;;25.59;100.00
41686;BME280;27370;42.764;23.432;2023-09-08T09:51:23;96003.97;;;25.65;100.00
41686;BME280;27370;42.764;23.432;2023-09-08T09:53:52;96001.44;;;25.62;100.00
41686;BME280;27370;42.764;23.432;2023-09-08T09:56:22;96002.47;;;25.64;100.00
41686;BME280;27370;42.764;23.432;2023-09-08T09:58:49;96001.00;;;25.69;100.00
41686;BME280;27370;42.764;23.432;2023-09-08T10:01:18;95994.78;;;25.85;100.00
41686;BME280;27370;42.764;23.432;2023-09-08T10:03:44;96002.03;;;25.72;100.00
41686;BME280;27370;42.764;23.432;2023-09-08T10:06:10;95994.44;;;25.29;100.00
41686;BME280;27370;42.764;23.432;2023-09-08T10:08:36;95998.13;;;25.15;100.00
41686;BME280;27370;42.764;23.432;2023-09-08T10:11:07;95993.25;;;25.04;100.00
41686;BME280;27370;42.764;23.432;2023-09-08T10:13:39;95981.41;;;24.72;100.00
41686;BME280;27370;42.764;23.432;2023-09-08T10:16:05;95992.84;;;24.60;100.00
41686;BME280;27370;42.764;23.432;2023-09-08T10:18:34;95987.16;;;24.69;100.00
41686;BME280;27370;42.764;23.432;2023-09-08T10:21:03;95984.38;;;24.43;100.00
41686;BME280;27370;42.764;23.432;2023-09-08T10:23:35;95973.16;;;24.52;100.00
41686;BME280;27370;42.764;23.432;2023-09-08T10:26:03;95977.41;;;25.05;100.00
41686;BME280;27370;42.764;23.432;2023-09-08T10:28:33;95971.63;;;25.51;100.00
41686;BME280;27370;42.764;23.432;2023-09-08T10:30:59;95976.25;;;25.65;100.00
41686;BME280;27370;42.764;23.432;2023-09-08T10:33:26;95977.28;;;25.68;100.00
41686;BME280;27370;42.764;23.432;2023-09-08T10:35:52;95977.75;;;25.61;100.00
41686;BME280;27370;42.764;23.432;2023-09-08T10:38:30;95971.03;;;25.79;100.00
41686;BME280;27370;42.764;23.432;2023-09-08T10:43:42;95970.63;;;26.03;100.00
41686;BME280;27370;42.764;23.432;2023-09-08T10:46:09;95979.41;;;25.90;100.00
41686;BME280;27370;42.764;23.432;2023-09-08T10:48:44;95975.81;;;25.73;100.00
41686;BME280;27370;42.764;23.432;2023-09-08T10:51:14;95970.19;;;25.19;100.00
41686;BME280;27370;42.764;23.432;2023-09-08T10:53:40;95969.66;;;25.15;100.00
41686;BME280;27370;42.764;23.432;2023-09-08T10:56:06;95977.47;;;25.16;100.00
41686;BME280;27370;42.764;23.432;2023-09-08T10:58:36;95974.00;;;25.27;100.00
41686;BME280;27370;42.764;23.432;2023-09-08T11:01:05;95975.78;;;25.30;100.00
41686;BME280;27370;42.764;23.432;2023-09-08T11:06:03;95981.22;;;25.50;100.00
41686;BME280;27370;42.764;23.432;2023-09-08T11:08:29;95960.28;;;25.55;100.00
41686;BME280;27370;42.764;23.432;2023-09-08T11:10:57;95971.38;;;25.49;100.00
41686;BME280;27370;42.764;23.432;2023-09-08T11:13:23;95969.56;;;25.41;100.00
41686;BME280;27370;42.764;23.432;2023-09-08T11:15:55;95958.97;;;25.39;100.00
41686;BME280;27370;42.764;23.432;2023-09-08T11:18:27;95959.22;;;25.36;100.00
41686;BME280;27370;42.764;23.432;2023-09-08T11:20:54;95954.28;;;25.14;100.00
41686;BME280;27370;42.764;23.432;2023-09-08T11:23:26;95961.75;;;25.02;100.00
41686;BME280;27370;42.764;23.432;2023-09-08T11:25:55;95958.59;;;24.57;100.00
41686;BME280;27370;42.764;23.432;2023-09-08T11:28:24;95946.75;;;24.88;100.00
41686;BME280;27370;42.764;23.432;2023-09-08T11:30:50;95955.50;;;24.76;100.00
41686;BME280;27370;42.764;23.432;2023-09-08T11:33:20;95949.81;;;24.90;100.00
41686;BME280;27370;42.764;23.432;2023-09-08T11:35:53;95948.03;;;25.19;100.00
41686;BME280;27370;42.764;23.432;2023-09-08T11:38:25;95941.94;;;25.63;100.00
41686;BME280;27370;42.764;23.432;2023-09-08T11:40:52;95940.03;;;25.80;100.00
41686;BME280;27370;42.764;23.432;2023-09-08T11:43:18;95930.91;;;25.69;100.00
41686;BME280;27370;42.764;23.432;2023-09-08T11:45:44;95936.03;;;25.98;100.00
41686;BME280;27370;42.764;23.432;2023-09-08T11:48:10;95920.91;;;25.40;100.00
41686;BME280;27370;42.764;23.432;2023-09-08T11:50:36;95924.34;;;24.86;100.00
41686;BME280;27370;42.764;23.432;2023-09-08T11:53:01;95915.75;;;24.84;100.00
41686;BME280;27370;42.764;23.432;2023-09-08T11:55:28;95921.16;;;24.36;100.00
41686;BME280;27370;42.764;23.432;2023-09-08T11:57:55;95929.91;;;24.29;100.00
41686;BME280;27370;42.764;23.432;2023-09-08T12:00:24;95920.03;;;24.85;100.00
41686;BME280;27370;42.764;23.432;2023-09-08T12:02:52;95923.50;;;25.12;100.00
41686;BME280;27370;42.764;23.432;2023-09-08T12:05:25;95923.91;;;24.93;100.00
41686;BME280;27370;42.764;23.432;2023-09-08T12:07:52;95925.75;;;24.70;100.00
41686;BME280;27370;42.764;23.432;2023-09-08T12:10:19;95909.53;;;24.58;100.00
41686;BME280;27370;42.764;23.432;2023-09-08T12:12:49;95913.56;;;24.94;100.00
41686;BME280;27370;42.764;23.432;2023-09-08T12:15:38;95903.91;;;25.15;100.00
41686;BME280;27370;42.764;23.432;2023-09-08T12:18:08;95911.72;;;25.17;100.00
41686;BME280;27370;42.764;23.432;2023-09-08T12:20:35;95905.16;;;24.77;100.00
41686;BME280;27370;42.764;23.432;2023-09-08T12:23:06;95903.16;;;24.83;100.00
41686;BME280;27370;42.764;23.432;2023-09-08T12:25:47;95902.28;;;24.66;100.00
41686;BME280;27370;42.764;23.432;2023-09-08T12:28:13;95898.53;;;24.37;100.00
41686;BME280;27370;42.764;23.432;2023-09-08T12:30:39;95891.53;;;24.42;100.00
41686;BME280;27370;42.764;23.432;2023-09-08T12:33:04;95896.25;;;24.36;100.00
41686;BME280;27370;42.764;23.432;2023-09-08T12:35:30;95890.06;;;24.47;100.00
41686;BME280;27370;42.764;23.432;2023-09-08T12:38:01;95891.59;;;24.48;100.00
41686;BME280;27370;42.764;23.432;2023-09-08T12:40:29;95887.22;;;24.67;100.00
41686;BME280;27370;42.764;23.432;2023-09-08T12:42:56;95884.34;;;24.56;100.00
41686;BME280;27370;42.764;23.432;2023-09-08T12:45:24;95882.88;;;24.97;100.00